VISIB

Not for real navigation. The accuracy of this data is not assured See disclaimer for more information



ICAO NAME COUNTRY WIND Kt GUST Kt VIS m TEMP/DEW C BARO METAR
SBCA 2 0 50 18/18 29.97 SBCA 220900Z 11002KT 0050 FG VV001 18/18 Q1015
CYBX Blanc Sablon, Que. Canada 9 0 200 0/0 29.91 CYBX 220900Z 26009KT 0.125SM FG VV002 00/00 A2991 RMK FG8 SLP133
OEKJ 23 0 200 26/-1 29.94 OEKJ 220900Z 35023KT 0200 BLDU NSC 26/M01 Q1014
CYHZ Halifax International Airport Canada 3 0 200 10/10 30.19 CYHZ 220941Z 17003KT 0.125SM R23/P6000FT/D R14/P6000FT/D FG VV001 10/10 A3019 RMK FG8 SLP228
CYBN Borden, Ont. Canada 2 0 200 2/2 30.20 CYBN 220900Z AUTO 19002KT 0.125SM OVC006 02/02 A3020 RMK SLP231

Show more